Time;durP1;ratioP1;P1;durP2;ratioP2;P2;SDS_P1;SDS_P2;PMS_P1;PMS_P2;Temp;Humidity;BMP_temperature;BMP_pressure;BME280_temperature;BME280_humidity;BME280_pressure;Samples;Min_cycle;Max_cycle;Signal;HPM_P1;HPM_P2
2021/10/18 00:02:00;;;;;;;956.65;825.47;;;;;;;;;;5037608;28;20100;-79
2021/10/18 00:04:26;;;;;;;954.42;816.60;;;;;;;;;;5049438;28;20028;-79
2021/10/18 00:06:52;;;;;;;950.08;808.03;;;;;;;;;;5069578;28;20028;-80
2021/10/18 00:09:18;;;;;;;950.85;805.30;;;;;;;;;;5068803;28;20032;-80
2021/10/18 00:11:44;;;;;;;951.40;802.72;;;;;;;;;;5069709;28;20100;-80
2021/10/18 00:14:10;;;;;;;950.25;809.55;;;;;;;;;;5048619;28;20048;-79
2021/10/18 00:16:37;;;;;;;947.72;792.92;;;;;;;;;;5051787;28;20021;-79
2021/10/18 00:19:03;;;;;;;952.10;807.80;;;;;;;;;;5068728;28;20028;-79
2021/10/18 00:21:29;;;;;;;954.10;808.85;;;;;;;;;;5067488;28;20021;-78
2021/10/18 00:23:55;;;;;;;950.85;801.90;;;;;;;;;;5051011;28;20028;-79
2021/10/18 00:26:34;;;;;;;953.30;803.88;;;;;;;;;;5040258;28;20425;-79
2021/10/18 00:41:39;;;;;;;948.55;776.10;;;;;;;;;;5066109;28;20411;-79
2021/10/18 02:03:08;;;;;;;936.60;748.92;;;;;;;;;;4959026;28;20053;-79
2021/10/18 02:14:24;;;;;;;948.97;786.47;;;;;;;;;;5063245;28;20121;-79
2021/10/18 02:16:50;;;;;;;944.40;778.95;;;;;;;;;;5076837;28;20036;-79
2021/10/18 02:19:16;;;;;;;945.65;781.35;;;;;;;;;;5086892;28;20055;-79
2021/10/18 02:21:42;;;;;;;946.38;791.45;;;;;;;;;;5087036;28;20031;-79
2021/10/18 02:24:08;;;;;;;949.13;796.90;;;;;;;;;;5069444;28;20031;-78
2021/10/18 02:26:34;;;;;;;946.80;788.97;;;;;;;;;;5085464;28;20024;-80
2021/10/18 02:29:00;;;;;;;954.70;801.55;;;;;;;;;;5086998;28;20077;-79
2021/10/18 02:31:26;;;;;;;951.47;795.95;;;;;;;;;;5085546;28;20110;-79
2021/10/18 02:33:52;;;;;;;939.08;774.13;;;;;;;;;;5066014;28;20035;-78
2021/10/18 02:36:18;;;;;;;947.85;794.60;;;;;;;;;;5086663;28;20483;-80
2021/10/18 02:38:44;;;;;;;949.97;800.33;;;;;;;;;;5068887;28;20085;-80
2021/10/18 02:41:10;;;;;;;945.13;782.40;;;;;;;;;;5081812;28;20118;-80
2021/10/18 02:43:36;;;;;;;950.03;801.97;;;;;;;;;;5066744;28;20037;-79
2021/10/18 02:46:02;;;;;;;956.90;814.60;;;;;;;;;;5050578;28;20047;-79
2021/10/18 02:48:28;;;;;;;949.80;794.13;;;;;;;;;;5073127;28;20068;-79
2021/10/18 02:50:54;;;;;;;948.35;798.85;;;;;;;;;;5063541;28;20078;-79
2021/10/18 02:53:20;;;;;;;949.80;801.13;;;;;;;;;;5086529;28;20043;-80
2021/10/18 02:55:47;;;;;;;941.25;778.63;;;;;;;;;;5086488;28;20028;-79
2021/10/18 02:58:13;;;;;;;942.00;782.20;;;;;;;;;;5070827;28;20543;-79
2021/10/18 03:00:39;;;;;;;945.58;787.55;;;;;;;;;;5067709;28;20127;-79
2021/10/18 03:03:09;;;;;;;946.70;797.15;;;;;;;;;;5085838;28;20023;-81
2021/10/18 03:05:36;;;;;;;948.75;797.65;;;;;;;;;;5086663;28;20028;-77
2021/10/18 03:08:02;;;;;;;947.15;790.65;;;;;;;;;;5084144;28;20367;-79
2021/10/18 03:10:28;;;;;;;940.25;774.60;;;;;;;;;;5065833;28;20039;-79
2021/10/18 03:12:54;;;;;;;941.00;765.72;;;;;;;;;;5077235;28;20040;-78
2021/10/18 03:15:20;;;;;;;948.30;786.78;;;;;;;;;;5078300;28;20028;-79
2021/10/18 03:17:46;;;;;;;949.58;779.88;;;;;;;;;;5086084;28;20078;-80
2021/10/18 03:20:13;;;;;;;942.35;780.72;;;;;;;;;;5067689;28;20083;-79
2021/10/18 03:22:39;;;;;;;946.65;784.42;;;;;;;;;;5085161;28;20028;-79
2021/10/18 03:25:07;;;;;;;944.05;785.05;;;;;;;;;;5087694;28;20035;-79
2021/10/18 03:27:33;;;;;;;948.65;796.03;;;;;;;;;;5072716;28;20051;-79
2021/10/18 03:29:59;;;;;;;943.40;775.95;;;;;;;;;;5086523;28;20393;-80
2021/10/18 03:32:25;;;;;;;950.30;801.33;;;;;;;;;;5087372;28;20295;-81
2021/10/18 03:34:51;;;;;;;941.17;775.90;;;;;;;;;;5085634;28;20032;-79
2021/10/18 03:37:17;;;;;;;952.58;801.53;;;;;;;;;;5071442;28;20024;-80
2021/10/18 03:39:43;;;;;;;946.67;794.53;;;;;;;;;;5071268;28;20012;-80
2021/10/18 03:42:09;;;;;;;947.83;794.17;;;;;;;;;;5088793;28;20055;-79
2021/10/18 03:44:35;;;;;;;938.30;769.65;;;;;;;;;;5079589;28;20032;-79
2021/10/18 03:47:01;;;;;;;946.47;791.58;;;;;;;;;;5089509;28;20309;-81
2021/10/18 03:49:27;;;;;;;944.80;781.92;;;;;;;;;;5091381;28;20027;-80
2021/10/18 03:51:53;;;;;;;947.42;793.83;;;;;;;;;;5072023;28;20101;-80
2021/10/18 03:54:19;;;;;;;947.72;794.28;;;;;;;;;;5089666;28;20051;-80
2021/10/18 03:56:45;;;;;;;947.88;792.63;;;;;;;;;;5090209;28;20040;-79
2021/10/18 03:59:11;;;;;;;944.70;783.15;;;;;;;;;;5071646;28;20082;-81
2021/10/18 04:01:37;;;;;;;947.10;784.63;;;;;;;;;;5071949;28;20539;-79
2021/10/18 04:04:03;;;;;;;946.80;791.40;;;;;;;;;;5075398;28;20450;-80
2021/10/18 04:06:29;;;;;;;944.88;785.67;;;;;;;;;;5071600;28;20611;-79
2021/10/18 04:08:55;;;;;;;950.70;788.95;;;;;;;;;;5089036;28;20032;-80
2021/10/18 04:11:21;;;;;;;952.25;807.80;;;;;;;;;;5069430;28;20026;-80
2021/10/18 04:13:47;;;;;;;946.22;783.47;;;;;;;;;;5070505;28;20044;-80
2021/10/18 04:16:13;;;;;;;947.95;798.78;;;;;;;;;;5089635;28;20036;-79
2021/10/18 04:18:39;;;;;;;944.30;785.10;;;;;;;;;;5072263;28;20109;-80
2021/10/18 04:21:06;;;;;;;945.35;784.45;;;;;;;;;;5088545;28;20271;-80
2021/10/18 04:23:32;;;;;;;943.28;783.30;;;;;;;;;;5070036;28;20392;-80
2021/10/18 04:25:58;;;;;;;940.83;775.65;;;;;;;;;;5083200;28;20025;-79
2021/10/18 04:28:24;;;;;;;943.95;772.88;;;;;;;;;;5069717;28;20024;-79
2021/10/18 04:30:50;;;;;;;945.08;783.28;;;;;;;;;;5061021;28;20123;-79
2021/10/18 04:33:16;;;;;;;945.70;784.33;;;;;;;;;;5067713;28;20035;-80
2021/10/18 04:35:42;;;;;;;946.10;783.78;;;;;;;;;;5064397;28;20032;-79
2021/10/18 04:38:08;;;;;;;941.85;772.97;;;;;;;;;;5088604;28;20472;-79
2021/10/18 04:40:34;;;;;;;942.45;775.85;;;;;;;;;;5086975;28;20072;-80
2021/10/18 04:43:00;;;;;;;945.08;777.60;;;;;;;;;;5067159;28;20021;-79
2021/10/18 04:45:26;;;;;;;945.85;774.78;;;;;;;;;;5085052;28;20050;-80
2021/10/18 04:47:52;;;;;;;939.25;757.28;;;;;;;;;;5070908;28;20035;-77
2021/10/18 04:50:19;;;;;;;940.88;767.20;;;;;;;;;;5070258;28;20024;-79
2021/10/18 04:52:45;;;;;;;937.70;757.88;;;;;;;;;;5069980;28;20867;-78
2021/10/18 04:55:11;;;;;;;939.15;755.90;;;;;;;;;;5070043;28;20066;-79
2021/10/18 04:57:54;;;;;;;935.92;744.95;;;;;;;;;;5070073;28;20020;-80
2021/10/18 05:00:24;;;;;;;935.00;748.00;;;;;;;;;;5069991;28;20076;-80
2021/10/18 05:02:50;;;;;;;938.38;755.13;;;;;;;;;;5070221;28;20081;-80
2021/10/18 05:05:16;;;;;;;942.65;753.40;;;;;;;;;;5054748;28;20546;-79
2021/10/18 05:07:42;;;;;;;944.28;766.47;;;;;;;;;;5050797;28;20085;-80
2021/10/18 05:10:10;;;;;;;940.45;764.15;;;;;;;;;;5065587;28;20036;-80
2021/10/18 05:12:36;;;;;;;940.80;764.17;;;;;;;;;;5087724;28;20234;-81
2021/10/18 05:15:02;;;;;;;941.75;770.38;;;;;;;;;;5070196;28;20126;-79
2021/10/18 05:17:28;;;;;;;941.28;767.28;;;;;;;;;;5069712;28;20031;-80
2021/10/18 05:19:53;;;;;;;945.35;770.35;;;;;;;;;;5070093;28;20240;-79
2021/10/18 05:22:19;;;;;;;944.60;778.83;;;;;;;;;;5069833;28;20024;-80
2021/10/18 05:24:45;;;;;;;940.40;769.05;;;;;;;;;;5070569;28;20031;-79
2021/10/18 05:27:11;;;;;;;939.42;762.58;;;;;;;;;;5087598;28;20431;-79
2021/10/18 05:29:37;;;;;;;937.30;756.95;;;;;;;;;;5067796;28;20030;-80
2021/10/18 05:32:05;;;;;;;944.20;759.00;;;;;;;;;;5052457;28;20024;-80
2021/10/18 05:34:31;;;;;;;939.60;755.50;;;;;;;;;;5087318;28;20020;-79
2021/10/18 05:36:57;;;;;;;937.97;753.78;;;;;;;;;;5059851;28;20043;-80
2021/10/18 05:39:23;;;;;;;938.33;752.83;;;;;;;;;;5056543;28;20027;-80
2021/10/18 05:41:49;;;;;;;938.42;751.17;;;;;;;;;;5085207;28;20048;-79
2021/10/18 05:44:15;;;;;;;937.60;752.08;;;;;;;;;;5070065;28;20328;-79
2021/10/18 05:46:41;;;;;;;935.75;748.17;;;;;;;;;;5088216;28;20549;-79
2021/10/18 05:49:07;;;;;;;937.80;749.22;;;;;;;;;;5068208;28;20055;-79
2021/10/18 05:51:33;;;;;;;934.30;745.13;;;;;;;;;;5070938;28;20058;-79
2021/10/18 05:53:59;;;;;;;933.55;741.85;;;;;;;;;;5069200;28;20133;-78
2021/10/18 05:56:25;;;;;;;936.70;746.50;;;;;;;;;;5085606;28;20024;-79
2021/10/18 05:58:51;;;;;;;937.25;745.65;;;;;;;;;;5068223;28;20027;-79
2021/10/18 06:01:17;;;;;;;936.20;742.08;;;;;;;;;;5086399;28;20295;-78
2021/10/18 06:03:43;;;;;;;935.35;738.78;;;;;;;;;;5086203;28;20052;-79
2021/10/18 06:06:11;;;;;;;933.55;737.88;;;;;;;;;;5087285;28;20055;-79
2021/10/18 06:08:37;;;;;;;932.78;731.88;;;;;;;;;;5087324;28;20399;-79
2021/10/18 06:11:04;;;;;;;936.83;747.63;;;;;;;;;;5083636;28;20028;-78
2021/10/18 06:13:30;;;;;;;936.28;748.42;;;;;;;;;;5067950;28;20047;-78
2021/10/18 06:15:56;;;;;;;940.00;755.35;;;;;;;;;;5068129;28;20615;-78
2021/10/18 06:18:22;;;;;;;936.58;747.90;;;;;;;;;;5086336;28;20035;-78
2021/10/18 06:20:49;;;;;;;932.42;735.47;;;;;;;;;;5070129;28;20024;-78
2021/10/18 06:23:16;;;;;;;933.55;739.22;;;;;;;;;;5084118;28;20506;-79
2021/10/18 06:25:42;;;;;;;933.97;746.70;;;;;;;;;;5075918;28;20028;-78
2021/10/18 06:28:09;;;;;;;932.13;741.85;;;;;;;;;;5075310;28;20106;-79
2021/10/18 06:30:35;;;;;;;929.83;736.53;;;;;;;;;;5068490;28;20028;-78
2021/10/18 06:33:03;;;;;;;933.95;746.20;;;;;;;;;;5087116;28;20111;-78
2021/10/18 06:35:29;;;;;;;933.63;747.65;;;;;;;;;;5085226;28;20597;-78
2021/10/18 06:37:55;;;;;;;931.17;740.42;;;;;;;;;;5064512;28;20052;-78
2021/10/18 06:40:21;;;;;;;933.78;748.50;;;;;;;;;;5084305;28;20024;-79
2021/10/18 06:42:47;;;;;;;935.83;752.55;;;;;;;;;;5064238;28;20028;-77
2021/10/18 06:45:13;;;;;;;932.38;741.90;;;;;;;;;;5067376;28;20055;-78
2021/10/18 06:47:39;;;;;;;936.10;751.78;;;;;;;;;;5071148;28;20040;-78
2021/10/18 06:50:06;;;;;;;935.97;757.75;;;;;;;;;;5079445;28;20326;-79
2021/10/18 06:52:35;;;;;;;934.15;753.47;;;;;;;;;;5085128;28;20028;-78
2021/10/18 06:55:04;;;;;;;942.67;778.08;;;;;;;;;;5084878;28;20051;-78
2021/10/18 06:57:30;;;;;;;938.47;762.05;;;;;;;;;;5081221;28;20106;-79
2021/10/18 06:59:56;;;;;;;937.42;759.03;;;;;;;;;;5084521;28;20020;-80
2021/10/18 07:02:22;;;;;;;934.90;758.92;;;;;;;;;;5083700;28;20032;-80
2021/10/18 07:04:48;;;;;;;935.78;765.95;;;;;;;;;;5083913;28;20120;-79
2021/10/18 07:07:14;;;;;;;938.85;765.83;;;;;;;;;;5064118;28;20032;-79
2021/10/18 07:09:42;;;;;;;944.33;772.42;;;;;;;;;;5082765;28;20377;-80
2021/10/18 07:12:08;;;;;;;938.58;767.47;;;;;;;;;;5083638;28;20016;-80
2021/10/18 07:14:34;;;;;;;941.67;775.40;;;;;;;;;;5067849;28;20431;-78
2021/10/18 07:17:00;;;;;;;944.88;776.72;;;;;;;;;;5062468;28;20035;-78
2021/10/18 07:19:26;;;;;;;941.28;774.95;;;;;;;;;;5081160;28;20059;-77
2021/10/18 07:21:52;;;;;;;943.72;774.83;;;;;;;;;;5063468;28;20032;-79
2021/10/18 07:24:18;;;;;;;944.88;776.90;;;;;;;;;;5061897;28;20032;-79
2021/10/18 07:26:47;;;;;;;947.35;789.40;;;;;;;;;;5063370;28;20035;-80
2021/10/18 07:29:13;;;;;;;942.65;775.38;;;;;;;;;;5056887;28;20456;-78
2021/10/18 07:31:41;;;;;;;945.28;786.55;;;;;;;;;;5082716;28;20503;-79
2021/10/18 07:34:13;;;;;;;939.38;766.58;;;;;;;;;;5060919;28;20020;-79
2021/10/18 07:36:47;;;;;;;941.58;778.30;;;;;;;;;;5066798;28;20158;-79
2021/10/18 07:39:15;;;;;;;941.17;779.20;;;;;;;;;;5082301;28;20389;-78
2021/10/18 07:41:41;;;;;;;941.35;777.03;;;;;;;;;;5081523;28;20013;-78
2021/10/18 07:44:07;;;;;;;942.95;782.55;;;;;;;;;;5070519;28;20055;-77
2021/10/18 07:46:33;;;;;;;940.97;783.30;;;;;;;;;;5051618;28;20032;-77
2021/10/18 07:48:59;;;;;;;949.55;805.20;;;;;;;;;;5063071;28;20039;-79
2021/10/18 07:51:25;;;;;;;943.33;789.45;;;;;;;;;;5067778;28;20032;-79
2021/10/18 07:53:51;;;;;;;943.83;794.78;;;;;;;;;;5084405;28;20553;-79
2021/10/18 07:56:17;;;;;;;952.80;810.00;;;;;;;;;;5084565;28;20093;-79
2021/10/18 07:58:43;;;;;;;947.50;807.63;;;;;;;;;;5066521;28;20028;-79
2021/10/18 08:01:09;;;;;;;953.05;821.00;;;;;;;;;;5078216;28;20024;-78
2021/10/18 08:03:35;;;;;;;950.05;815.78;;;;;;;;;;5064574;28;20247;-78
2021/10/18 08:06:01;;;;;;;949.42;816.13;;;;;;;;;;5081805;28;20036;-77
2021/10/18 08:08:33;;;;;;;954.15;825.45;;;;;;;;;;5081094;28;20028;-79
2021/10/18 08:10:59;;;;;;;954.08;825.85;;;;;;;;;;5065106;28;20491;-79
2021/10/18 08:13:25;;;;;;;956.72;826.97;;;;;;;;;;5089267;28;20047;-78
2021/10/18 08:15:51;;;;;;;954.20;823.80;;;;;;;;;;5070090;28;20123;-77
2021/10/18 08:18:17;;;;;;;948.17;816.55;;;;;;;;;;5084810;28;20071;-78
2021/10/18 08:20:43;;;;;;;958.05;836.17;;;;;;;;;;5070304;28;20455;-76
2021/10/18 08:23:10;;;;;;;954.63;830.10;;;;;;;;;;5088197;28;20032;-80
2021/10/18 08:25:36;;;;;;;955.75;830.05;;;;;;;;;;5087515;28;20385;-78
2021/10/18 08:28:02;;;;;;;955.53;833.17;;;;;;;;;;5069313;28;20123;-77
2021/10/18 08:30:28;;;;;;;958.83;839.40;;;;;;;;;;5088077;28;20028;-77
2021/10/18 08:32:54;;;;;;;960.60;834.97;;;;;;;;;;5061593;28;20464;-77
2021/10/18 08:35:21;;;;;;;950.83;819.97;;;;;;;;;;5087036;28;20067;-75
2021/10/18 08:40:35;;;;;;;958.72;842.92;;;;;;;;;;5081507;28;20519;-77
2021/10/18 08:43:06;;;;;;;959.65;850.17;;;;;;;;;;5074396;28;20036;-76
2021/10/18 08:45:32;;;;;;;958.53;850.58;;;;;;;;;;5050160;28;20060;-76
2021/10/18 08:48:18;;;;;;;959.35;849.28;;;;;;;;;;5065590;28;20063;-78
2021/10/18 08:50:48;;;;;;;954.20;835.05;;;;;;;;;;5072617;28;20032;-76
2021/10/18 08:53:15;;;;;;;956.90;841.30;;;;;;;;;;5058773;28;20087;-76
2021/10/18 08:55:42;;;;;;;952.95;838.90;;;;;;;;;;5057063;28;20032;-79
2021/10/18 08:58:09;;;;;;;960.75;845.10;;;;;;;;;;5049732;28;20016;-78
2021/10/18 09:00:37;;;;;;;964.53;857.63;;;;;;;;;;5067617;28;20097;-77
2021/10/18 09:03:13;;;;;;;961.88;851.42;;;;;;;;;;5071598;28;20024;-76
2021/10/18 09:05:39;;;;;;;956.40;842.30;;;;;;;;;;5083013;28;20476;-78
2021/10/18 09:08:05;;;;;;;962.08;855.35;;;;;;;;;;5072744;28;20108;-78
2021/10/18 09:10:31;;;;;;;967.78;860.80;;;;;;;;;;5050947;28;20472;-77
2021/10/18 09:13:13;;;;;;;967.25;860.28;;;;;;;;;;5081131;28;20044;-77
2021/10/18 09:15:39;;;;;;;969.05;862.40;;;;;;;;;;5080629;28;20056;-79
2021/10/18 09:18:05;;;;;;;985.97;878.35;;;;;;;;;;5053767;28;20076;-77
2021/10/18 09:20:32;;;;;;;984.13;876.60;;;;;;;;;;5052420;28;20020;-77
2021/10/18 09:23:18;;;;;;;979.05;872.08;;;;;;;;;;5063033;28;20028;-78
2021/10/18 09:25:46;;;;;;;966.38;859.88;;;;;;;;;;5059182;28;20081;-76
2021/10/18 09:28:14;;;;;;;975.53;868.28;;;;;;;;;;5083915;28;20036;-77
2021/10/18 09:30:44;;;;;;;978.35;871.28;;;;;;;;;;5053734;28;20020;-76
2021/10/18 09:33:16;;;;;;;977.22;870.15;;;;;;;;;;5060145;28;20464;-77
2021/10/18 09:35:42;;;;;;;979.72;872.53;;;;;;;;;;5080234;28;20488;-78
2021/10/18 09:38:09;;;;;;;971.05;864.28;;;;;;;;;;5070931;28;20419;-77
2021/10/18 09:40:38;;;;;;;974.42;867.35;;;;;;;;;;5068588;28;20319;-78
2021/10/18 09:45:35;;;;;;;993.25;885.58;;;;;;;;;;5087321;28;20028;-76
2021/10/18 10:53:05;;;;;;;1035.30;926.50;;;;;;;;;;5084839;28;20538;-78
2021/10/18 10:55:34;;;;;;;1038.93;929.75;;;;;;;;;;5084026;28;20034;-77
2021/10/18 10:58:04;;;;;;;1055.95;946.33;;;;;;;;;;5066742;28;20440;-78
2021/10/18 11:00:30;;;;;;;1058.93;949.50;;;;;;;;;;5085225;28;20604;-76
2021/10/18 11:03:14;;;;;;;1056.35;946.60;;;;;;;;;;5083195;28;20032;-76
2021/10/18 11:05:59;;;;;;;1057.07;947.58;;;;;;;;;;5060648;28;20035;-77
2021/10/18 11:08:39;;;;;;;1051.80;942.63;;;;;;;;;;5050806;28;20029;-76
2021/10/18 11:11:09;;;;;;;1051.50;942.05;;;;;;;;;;5078329;28;20028;-76
2021/10/18 11:13:49;;;;;;;1062.38;952.78;;;;;;;;;;5064258;28;20043;-75
2021/10/18 11:16:18;;;;;;;1058.85;949.22;;;;;;;;;;5083271;28;20024;-75
2021/10/18 11:18:46;;;;;;;1063.22;953.22;;;;;;;;;;5060882;28;20028;-77
2021/10/18 11:21:13;;;;;;;1067.65;957.58;;;;;;;;;;5081180;28;20031;-78
2021/10/18 11:23:58;;;;;;;1060.35;950.75;;;;;;;;;;5082465;28;20031;-75
2021/10/18 11:26:27;;;;;;;1059.95;950.25;;;;;;;;;;5083483;28;20115;-78
2021/10/18 11:28:54;;;;;;;1066.00;956.08;;;;;;;;;;5080861;28;20571;-77
2021/10/18 11:31:24;;;;;;;1067.30;957.53;;;;;;;;;;5084824;28;20024;-78
2021/10/18 11:33:59;;;;;;;1064.82;955.15;;;;;;;;;;5079600;28;20391;-77
2021/10/18 11:36:26;;;;;;;1070.47;960.50;;;;;;;;;;5064268;28;20039;-77
2021/10/18 11:39:11;;;;;;;1084.10;973.38;;;;;;;;;;5083996;28;20536;-77
2021/10/18 11:41:56;;;;;;;1070.07;960.17;;;;;;;;;;5061483;28;20507;-77
2021/10/18 11:44:42;;;;;;;1070.93;960.80;;;;;;;;;;5080442;28;20020;-78
2021/10/18 11:47:21;;;;;;;1067.00;957.30;;;;;;;;;;5084613;28;20024;-79
2021/10/18 11:50:03;;;;;;;1071.13;961.07;;;;;;;;;;5086880;28;20107;-78
2021/10/18 11:52:41;;;;;;;1064.75;955.15;;;;;;;;;;5085773;28;20270;-78
2021/10/18 11:55:10;;;;;;;1061.47;952.08;;;;;;;;;;5082450;28;20559;-76
2021/10/18 11:57:42;;;;;;;1057.00;947.97;;;;;;;;;;5070538;28;20042;-76
2021/10/18 12:00:09;;;;;;;1063.70;953.80;;;;;;;;;;5079859;28;20408;-76
2021/10/18 12:02:39;;;;;;;1076.30;966.25;;;;;;;;;;5084980;28;20024;-78
2021/10/18 12:05:06;;;;;;;1070.80;960.85;;;;;;;;;;5065941;28;20020;-78
2021/10/18 12:07:48;;;;;;;1078.85;968.80;;;;;;;;;;5085485;28;20027;-77
2021/10/18 12:10:19;;;;;;;1072.07;962.08;;;;;;;;;;5082537;28;20400;-78
2021/10/18 12:13:03;;;;;;;1071.10;961.00;;;;;;;;;;5082392;28;20053;-77
2021/10/18 12:15:29;;;;;;;1074.75;964.67;;;;;;;;;;5070260;28;20358;-77
2021/10/18 12:17:55;;;;;;;1073.93;964.25;;;;;;;;;;5074893;28;20039;-78
2021/10/18 12:20:22;;;;;;;1081.22;971.22;;;;;;;;;;5051999;28;20024;-78
2021/10/18 12:23:01;;;;;;;1078.90;968.90;;;;;;;;;;5083903;28;20024;-78
2021/10/18 12:25:28;;;;;;;1076.25;966.28;;;;;;;;;;5079148;28;20091;-78
2021/10/18 12:27:54;;;;;;;1074.80;964.97;;;;;;;;;;5059926;28;20028;-78
2021/10/18 12:30:39;;;;;;;1081.40;971.33;;;;;;;;;;5064876;28;20036;-81
2021/10/18 12:33:12;;;;;;;1062.65;953.28;;;;;;;;;;5085231;28;20150;-78
2021/10/18 12:35:38;;;;;;;1068.78;959.38;;;;;;;;;;5082153;28;20708;-78
2021/10/18 12:38:14;;;;;;;1085.53;975.42;;;;;;;;;;5070016;28;20020;-77
2021/10/18 12:40:41;;;;;;;1080.15;970.20;;;;;;;;;;5052104;28;20024;-78
2021/10/18 12:43:07;;;;;;;1088.20;978.05;;;;;;;;;;5068162;28;20570;-77
2021/10/18 12:45:34;;;;;;;1080.68;970.67;;;;;;;;;;5076552;28;20052;-77
2021/10/18 12:48:01;;;;;;;1076.07;966.38;;;;;;;;;;5071373;28;20032;-77
2021/10/18 12:50:36;;;;;;;1081.18;971.03;;;;;;;;;;5081473;28;20032;-77
2021/10/18 12:53:12;;;;;;;1077.97;967.60;;;;;;;;;;5070002;28;20035;-77
2021/10/18 12:55:39;;;;;;;1084.50;973.92;;;;;;;;;;5081733;28;20027;-77
2021/10/18 12:58:07;;;;;;;1089.30;978.97;;;;;;;;;;5071617;28;20024;-77
2021/10/18 13:00:37;;;;;;;1074.28;964.40;;;;;;;;;;5084521;28;20020;-77
2021/10/18 13:03:03;;;;;;;;;;;;;;;;;;5057706;28;20085;-78
2021/10/18 13:05:31;;;;;;;1050.57;941.20;;;;;;;;;;5076073;28;19958;-78
2021/10/18 13:08:01;;;;;;;1071.85;961.88;;;;;;;;;;5075318;28;20115;-77
2021/10/18 13:10:29;;;;;;;1070.38;960.42;;;;;;;;;;5083176;28;20142;-78
2021/10/18 13:12:55;;;;;;;1069.88;960.13;;;;;;;;;;5073767;28;20052;-77
2021/10/18 13:15:21;;;;;;;1070.18;960.30;;;;;;;;;;5079404;28;20480;-78
2021/10/18 13:17:48;;;;;;;1072.30;962.38;;;;;;;;;;5087698;28;20023;-78
2021/10/18 13:20:15;;;;;;;1070.72;960.88;;;;;;;;;;5071399;28;20024;-78
2021/10/18 13:22:42;;;;;;;1079.43;968.85;;;;;;;;;;5066077;28;20134;-78
2021/10/18 13:25:08;;;;;;;1075.93;965.97;;;;;;;;;;5056117;28;20016;-78
2021/10/18 13:27:36;;;;;;;1078.85;968.28;;;;;;;;;;5066108;28;20086;-78
2021/10/18 13:30:03;;;;;;;1072.80;963.08;;;;;;;;;;5056464;28;20016;-79
2021/10/18 13:32:29;;;;;;;1079.70;968.83;;;;;;;;;;5074361;28;20029;-78
2021/10/18 13:34:56;;;;;;;1075.30;965.22;;;;;;;;;;5063403;28;20337;-79
2021/10/18 13:37:23;;;;;;;1077.28;966.90;;;;;;;;;;5067160;28;20572;-76
2021/10/18 13:39:50;;;;;;;1075.00;965.05;;;;;;;;;;5085758;28;20028;-76
2021/10/18 13:42:17;;;;;;;1079.18;968.83;;;;;;;;;;5083943;28;20437;-78
2021/10/18 13:44:43;;;;;;;1076.25;966.00;;;;;;;;;;5068934;28;20326;-80
2021/10/18 13:47:09;;;;;;;1075.13;964.95;;;;;;;;;;5063373;28;20078;-78
2021/10/18 13:49:35;;;;;;;1071.45;961.60;;;;;;;;;;5081743;28;20051;-79
2021/10/18 13:52:02;;;;;;;1079.82;969.03;;;;;;;;;;5056845;28;20052;-80
2021/10/18 13:54:28;;;;;;;1083.10;972.65;;;;;;;;;;5070557;28;20638;-78
2021/10/18 13:56:54;;;;;;;1078.93;968.53;;;;;;;;;;5076222;28;20127;-79
2021/10/18 13:59:20;;;;;;;1086.72;976.00;;;;;;;;;;5086174;28;20032;-78
2021/10/18 14:01:46;;;;;;;1071.53;961.72;;;;;;;;;;5081764;28;20081;-78
2021/10/18 14:04:13;;;;;;;1080.13;969.47;;;;;;;;;;5083706;28;20047;-77
2021/10/18 14:06:39;;;;;;;1080.00;969.40;;;;;;;;;;5081250;28;20589;-78
2021/10/18 14:09:05;;;;;;;1080.80;970.60;;;;;;;;;;5066237;28;20074;-78
2021/10/18 14:11:31;;;;;;;1085.82;975.10;;;;;;;;;;5066222;28;20472;-78
2021/10/18 14:13:58;;;;;;;1064.85;955.42;;;;;;;;;;5079030;28;20040;-79
2021/10/18 14:16:25;;;;;;;1072.93;962.75;;;;;;;;;;5070507;28;20426;-78
2021/10/18 14:18:51;;;;;;;1085.60;975.10;;;;;;;;;;5080964;28;20111;-77
2021/10/18 14:21:17;;;;;;;1072.10;961.88;;;;;;;;;;5076176;28;20528;-78
2021/10/18 14:23:43;;;;;;;1068.35;958.55;;;;;;;;;;5053772;28;20096;-79
2021/10/18 14:26:10;;;;;;;1079.63;969.47;;;;;;;;;;5082725;28;20032;-79
2021/10/18 14:28:36;;;;;;;1080.88;970.53;;;;;;;;;;5064914;28;20473;-79
2021/10/18 14:31:03;;;;;;;1081.00;970.83;;;;;;;;;;5081798;28;20032;-79
2021/10/18 14:33:30;;;;;;;1086.88;976.25;;;;;;;;;;5061503;28;20388;-79
2021/10/18 14:35:58;;;;;;;1088.13;977.75;;;;;;;;;;5075306;28;20371;-78
2021/10/18 14:38:24;;;;;;;1079.72;969.42;;;;;;;;;;5081047;28;20120;-79
2021/10/18 14:40:50;;;;;;;1085.57;974.92;;;;;;;;;;5073928;28;20029;-79
2021/10/18 14:43:16;;;;;;;1087.28;976.47;;;;;;;;;;5055674;28;20012;-78
2021/10/18 14:45:42;;;;;;;1090.13;979.42;;;;;;;;;;5067756;28;20213;-78
2021/10/18 14:48:08;;;;;;;1086.03;975.53;;;;;;;;;;5076806;28;20494;-79
2021/10/18 14:50:34;;;;;;;1077.25;966.33;;;;;;;;;;5067911;28;20039;-78
2021/10/18 14:53:01;;;;;;;1078.93;968.60;;;;;;;;;;5061154;28;20480;-78
2021/10/18 14:55:27;;;;;;;1085.32;974.17;;;;;;;;;;5047808;28;20479;-79
2021/10/18 14:57:53;;;;;;;1085.00;974.08;;;;;;;;;;5060840;28;20498;-80
2021/10/18 15:00:19;;;;;;;1085.57;974.72;;;;;;;;;;5080124;28;20026;-80
2021/10/18 15:02:46;;;;;;;1082.65;972.15;;;;;;;;;;5056992;28;20036;-80
2021/10/18 15:05:12;;;;;;;1086.13;975.33;;;;;;;;;;5071973;28;20379;-80
2021/10/18 15:07:39;;;;;;;1082.95;972.45;;;;;;;;;;5066323;28;20229;-78
2021/10/18 15:10:05;;;;;;;1085.20;974.42;;;;;;;;;;5082209;28;20036;-77
2021/10/18 15:12:31;;;;;;;1077.60;967.30;;;;;;;;;;5060197;28;20028;-78
2021/10/18 15:14:57;;;;;;;1090.93;979.58;;;;;;;;;;5082931;28;20032;-80
2021/10/18 15:17:23;;;;;;;1083.97;973.03;;;;;;;;;;5062339;28;20036;-79
2021/10/18 15:19:49;;;;;;;1074.28;964.13;;;;;;;;;;5086381;28;20032;-78
2021/10/18 15:22:15;;;;;;;1074.20;964.15;;;;;;;;;;5090611;28;20023;-81
2021/10/18 15:24:42;;;;;;;1076.35;966.15;;;;;;;;;;5094822;28;20103;-79
2021/10/18 15:27:08;;;;;;;1072.03;961.95;;;;;;;;;;5092858;28;20034;-79
2021/10/18 15:29:34;;;;;;;1068.22;958.10;;;;;;;;;;5093642;28;20458;-78
2021/10/18 15:32:00;;;;;;;1074.63;964.25;;;;;;;;;;5073092;28;20024;-79
2021/10/18 15:34:26;;;;;;;1062.43;952.42;;;;;;;;;;5090131;28;20024;-78
2021/10/18 15:36:52;;;;;;;1063.28;953.15;;;;;;;;;;5075150;28;20020;-80
2021/10/18 15:39:21;;;;;;;1068.72;958.58;;;;;;;;;;5081729;28;20040;-80
2021/10/18 15:41:47;;;;;;;1062.07;952.15;;;;;;;;;;5077404;28;20024;-81
2021/10/18 15:44:13;;;;;;;1067.70;957.42;;;;;;;;;;5080381;28;20081;-78
2021/10/18 15:46:42;;;;;;;1053.28;943.95;;;;;;;;;;5073995;28;20063;-81
2021/10/18 15:49:09;;;;;;;1057.75;947.83;;;;;;;;;;5092920;28;20388;-78
2021/10/18 15:51:35;;;;;;;1055.43;945.80;;;;;;;;;;5074639;28;20035;-80
2021/10/18 15:54:01;;;;;;;1049.50;940.17;;;;;;;;;;5071321;28;21340;-79
2021/10/18 15:56:27;;;;;;;1056.88;947.13;;;;;;;;;;5093745;28;20434;-80
2021/10/18 15:58:53;;;;;;;1061.20;951.03;;;;;;;;;;5077120;28;20036;-81
2021/10/18 16:01:19;;;;;;;1050.60;941.05;;;;;;;;;;5076734;28;20488;-80
2021/10/18 16:03:45;;;;;;;1059.15;949.03;;;;;;;;;;5067909;28;20031;-81
2021/10/18 16:06:11;;;;;;;1054.20;944.50;;;;;;;;;;5093420;28;20453;-80
2021/10/18 16:08:37;;;;;;;1053.28;943.60;;;;;;;;;;5075100;28;20044;-80
2021/10/18 16:11:03;;;;;;;1061.53;951.20;;;;;;;;;;5071814;28;20028;-80
2021/10/18 16:13:30;;;;;;;1054.03;943.92;;;;;;;;;;5088620;28;20113;-81
2021/10/18 16:15:56;;;;;;;1049.60;940.17;;;;;;;;;;5074793;28;20024;-81
2021/10/18 16:18:22;;;;;;;1053.38;943.67;;;;;;;;;;5092879;28;20043;-80
2021/10/18 16:20:50;;;;;;;1044.32;934.97;;;;;;;;;;5074981;28;20024;-81
2021/10/18 16:23:16;;;;;;;1053.50;943.70;;;;;;;;;;5074938;28;20024;-81
2021/10/18 16:25:47;;;;;;;1042.38;932.92;;;;;;;;;;5074676;28;20472;-80
2021/10/18 16:28:13;;;;;;;1051.30;941.65;;;;;;;;;;5075108;28;20031;-81
2021/10/18 16:30:39;;;;;;;1045.03;935.75;;;;;;;;;;5092442;28;20047;-80
2021/10/18 16:33:05;;;;;;;1044.93;935.72;;;;;;;;;;5089252;28;20028;-80
2021/10/18 16:35:31;;;;;;;1047.78;937.97;;;;;;;;;;5089641;28;20121;-80
2021/10/18 16:37:57;;;;;;;1044.50;934.95;;;;;;;;;;5071365;28;20020;-81
2021/10/18 16:40:24;;;;;;;1037.00;928.03;;;;;;;;;;5060066;28;20167;-80
2021/10/18 16:42:50;;;;;;;1042.78;933.65;;;;;;;;;;5052310;28;20395;-81